Time;durP1;ratioP1;P1;durP2;ratioP2;P2;SDS_P1;SDS_P2;PMS_P1;PMS_P2;Temp;Humidity;BMP_temperature;BMP_pressure;BME280_temperature;BME280_humidity;BME280_pressure;Samples;Min_cycle;Max_cycle;Signal;HPM_P1;HPM_P2
2023/04/23 00:01:17;;;;;;;13.68;7.38;;;;;;;12.22;100.00;98172.41;4989714;28;20335;-49
2023/04/23 00:03:43;;;;;;;12.65;7.03;;;;;;;12.31;100.00;98172.91;4975570;28;20037;-49
2023/04/23 00:06:10;;;;;;;10.55;6.13;;;;;;;12.31;100.00;98165.59;4985704;28;20022;-49
2023/04/23 00:08:40;;;;;;;10.10;5.50;;;;;;;12.32;100.00;98166.44;4965192;28;20747;-49
2023/04/23 00:11:06;;;;;;;7.22;5.47;;;;;;;12.34;100.00;98173.28;4972527;28;20116;-49
2023/04/23 00:13:32;;;;;;;7.97;5.40;;;;;;;12.34;100.00;98162.44;4974175;28;20522;-49
2023/04/23 00:15:57;;;;;;;10.10;5.22;;;;;;;12.36;100.00;98168.44;4987925;28;20032;-49
2023/04/23 00:18:22;;;;;;;12.23;4.85;;;;;;;12.31;100.00;98167.47;4977942;28;20050;-49
2023/04/23 00:20:48;;;;;;;7.53;4.60;;;;;;;12.16;100.00;98149.75;4990362;28;20026;-49
2023/04/23 00:23:14;;;;;;;11.95;5.53;;;;;;;12.15;100.00;98136.41;4972704;28;20431;-49
2023/04/23 00:25:39;;;;;;;9.38;4.80;;;;;;;12.22;100.00;98153.41;4976940;28;20034;-49
2023/04/23 00:28:05;;;;;;;8.10;5.15;;;;;;;12.28;100.00;98155.19;4978136;28;20554;-49
2023/04/23 00:30:30;;;;;;;5.60;3.88;;;;;;;12.33;100.00;98166.19;4971923;28;20092;-49
2023/04/23 00:32:56;;;;;;;7.00;4.82;;;;;;;12.31;100.00;98157.44;4976594;28;20057;-49
2023/04/23 00:35:22;;;;;;;7.85;4.90;;;;;;;12.31;100.00;98160.16;4988180;28;20435;-50
2023/04/23 00:37:47;;;;;;;8.30;5.10;;;;;;;12.29;100.00;98154.16;4975970;28;20033;-50
2023/04/23 00:40:13;;;;;;;7.93;5.25;;;;;;;12.32;100.00;98171.88;4978046;28;20544;-50
2023/04/23 00:42:39;;;;;;;9.13;4.82;;;;;;;12.30;100.00;98177.50;4984183;28;20501;-50
2023/04/23 00:45:07;;;;;;;8.48;4.68;;;;;;;12.21;100.00;98178.91;4970155;28;20018;-50
2023/04/23 00:47:33;;;;;;;7.75;4.90;;;;;;;12.13;100.00;98187.31;4972878;28;20026;-50
2023/04/23 00:49:59;;;;;;;5.60;4.43;;;;;;;12.05;100.00;98189.31;4975044;28;20041;-50
2023/04/23 00:52:24;;;;;;;10.48;5.18;;;;;;;12.02;100.00;98187.03;4973792;28;20079;-50
2023/04/23 00:54:49;;;;;;;7.90;5.25;;;;;;;12.04;100.00;98192.25;4972971;28;20053;-50
2023/04/23 00:57:16;;;;;;;8.13;5.10;;;;;;;12.06;100.00;98190.97;4994242;28;20080;-50
2023/04/23 00:59:41;;;;;;;9.00;4.75;;;;;;;12.06;100.00;98207.22;4991118;28;20075;-50
2023/04/23 01:02:06;;;;;;;8.43;4.90;;;;;;;12.05;100.00;98208.28;4972462;28;20712;-50
2023/04/23 01:04:34;;;;;;;9.65;4.55;;;;;;;11.99;100.00;98211.88;4973590;28;20033;-50
2023/04/23 01:07:01;;;;;;;6.55;4.10;;;;;;;12.00;100.00;98210.03;4975304;28;20030;-50
2023/04/23 01:09:27;;;;;;;6.80;4.03;;;;;;;11.96;100.00;98201.50;4974094;28;20461;-50
2023/04/23 01:11:53;;;;;;;6.25;3.70;;;;;;;11.98;100.00;98207.53;4977229;28;20157;-52
2023/04/23 01:14:19;;;;;;;5.10;3.70;;;;;;;11.99;100.00;98211.88;4993040;28;20113;-51
2023/04/23 01:16:45;;;;;;;9.10;4.10;;;;;;;12.01;100.00;98211.69;4972945;28;20121;-50
2023/04/23 01:19:11;;;;;;;11.02;4.05;;;;;;;11.98;100.00;98210.25;4967695;28;20113;-50
2023/04/23 01:21:40;;;;;;;7.07;4.03;;;;;;;12.05;100.00;98215.56;4972629;28;20442;-51
2023/04/23 01:24:06;;;;;;;4.93;3.25;;;;;;;12.07;100.00;98211.59;4977799;28;20061;-51
2023/04/23 01:26:33;;;;;;;7.53;4.18;;;;;;;12.05;100.00;98218.28;4975905;28;20084;-51
2023/04/23 01:28:59;;;;;;;7.55;4.10;;;;;;;12.01;100.00;98212.50;4976679;28;20117;-51
2023/04/23 01:31:26;;;;;;;7.93;4.28;;;;;;;12.00;100.00;98216.28;4975836;28;20026;-51
2023/04/23 01:33:52;;;;;;;6.13;4.10;;;;;;;11.99;100.00;98221.91;4989394;28;20022;-51
2023/04/23 01:36:18;;;;;;;7.82;4.15;;;;;;;12.02;100.00;98214.16;4975887;28;20383;-51
2023/04/23 01:38:44;;;;;;;8.48;3.85;;;;;;;12.03;100.00;98215.00;4971581;28;20038;-50
2023/04/23 01:41:09;;;;;;;6.93;3.58;;;;;;;12.11;100.00;98206.56;4983978;28;20030;-50
2023/04/23 01:43:36;;;;;;;5.80;3.35;;;;;;;12.06;100.00;98204.50;4994618;28;20026;-50
2023/04/23 01:46:01;;;;;;;6.15;3.55;;;;;;;12.03;100.00;98220.41;4987058;28;20057;-50
2023/04/23 01:48:27;;;;;;;7.80;3.47;;;;;;;12.01;100.00;98211.69;4969255;28;20030;-50
2023/04/23 01:50:53;;;;;;;5.45;3.15;;;;;;;11.96;100.00;98215.06;4974600;28;20408;-49
2023/04/23 01:53:18;;;;;;;7.82;3.70;;;;;;;11.98;100.00;98221.09;4979855;28;20022;-49
2023/04/23 01:55:47;;;;;;;7.20;3.45;;;;;;;11.97;100.00;98216.75;4970415;28;20038;-49
2023/04/23 01:58:13;;;;;;;;;;;;;;;11.94;100.00;98217.16;4975260;28;20109;-49
2023/04/23 02:00:38;;;;;;;9.70;3.45;;;;;;;11.89;100.00;98218.91;4973180;28;20004;-49
2023/04/23 02:03:04;;;;;;;5.20;3.35;;;;;;;11.84;100.00;98228.53;4966220;28;21449;-49
2023/04/23 02:05:33;;;;;;;5.60;3.17;;;;;;;11.81;100.00;98228.13;4972536;28;20117;-49
2023/04/23 02:07:59;;;;;;;9.98;4.15;;;;;;;11.79;100.00;98232.97;4991212;28;20046;-49
2023/04/23 02:10:24;;;;;;;6.18;3.10;;;;;;;11.77;100.00;98229.66;4976825;28;20022;-49
2023/04/23 02:12:50;;;;;;;7.32;3.80;;;;;;;11.74;100.00;98238.22;4974428;28;20057;-49
2023/04/23 02:15:15;;;;;;;7.93;3.72;;;;;;;11.77;100.00;98243.19;4971986;28;20081;-49
2023/04/23 02:17:41;;;;;;;7.72;3.45;;;;;;;11.74;100.00;98246.38;4975164;28;20026;-49
2023/04/23 02:20:10;;;;;;;5.05;3.53;;;;;;;11.73;100.00;98245.50;4974861;28;20034;-49
2023/04/23 02:22:38;;;;;;;5.68;3.15;;;;;;;11.74;100.00;98246.38;4976160;28;20081;-49
2023/04/23 02:25:04;;;;;;;5.68;3.47;;;;;;;11.65;100.00;98239.56;4978024;28;20106;-48
2023/04/23 02:27:31;;;;;;;5.53;3.17;;;;;;;11.66;100.00;98239.34;4984453;28;20030;-48
2023/04/23 02:29:56;;;;;;;5.97;3.15;;;;;;;11.61;100.00;98242.72;4986314;28;20033;-49
2023/04/23 02:32:22;;;;;;;5.20;3.20;;;;;;;11.57;100.00;98238.78;4970171;28;20026;-49
2023/04/23 02:34:47;;;;;;;5.88;3.30;;;;;;;11.54;100.00;98255.50;4972794;28;20058;-48
2023/04/23 02:37:12;;;;;;;5.22;3.42;;;;;;;11.53;100.00;98253.84;4975625;28;20022;-48
2023/04/23 02:39:38;;;;;;;7.35;3.60;;;;;;;11.49;100.00;98255.34;4972342;28;20026;-48
2023/04/23 02:42:03;;;;;;;8.80;4.43;;;;;;;11.50;100.00;98254.31;4972420;28;20057;-48
2023/04/23 02:44:29;;;;;;;5.78;3.72;;;;;;;11.48;100.00;98253.69;4987900;28;20038;-48
2023/04/23 02:46:55;;;;;;;7.88;4.13;;;;;;;11.50;100.00;98257.03;4984911;28;20073;-48
2023/04/23 02:49:20;;;;;;;8.70;3.55;;;;;;;11.52;100.00;98260.31;4974932;28;20088;-49
2023/04/23 02:51:46;;;;;;;4.95;3.20;;;;;;;11.55;100.00;98257.19;4973041;28;20030;-49
2023/04/23 02:54:12;;;;;;;6.53;3.45;;;;;;;11.57;100.00;98260.47;4974171;28;20025;-50
2023/04/23 02:56:37;;;;;;;5.50;3.50;;;;;;;11.53;100.00;98251.16;4974008;28;20066;-51
2023/04/23 02:59:03;;;;;;;9.13;3.78;;;;;;;11.51;100.00;98250.53;4975719;28;20137;-51
2023/04/23 03:01:28;;;;;;;5.93;3.42;;;;;;;11.43;100.00;98253.53;4965260;28;20046;-51
2023/04/23 03:03:54;;;;;;;8.35;3.92;;;;;;;11.35;100.00;98253.81;4972627;28;20026;-50
2023/04/23 03:06:19;;;;;;;6.53;3.75;;;;;;;11.27;100.00;98257.63;4974593;28;20022;-50
2023/04/23 03:08:44;;;;;;;11.88;4.60;;;;;;;11.22;100.00;98262.88;4972965;28;20630;-50
2023/04/23 03:11:10;;;;;;;9.30;4.22;;;;;;;11.19;100.00;98264.16;4990126;28;20026;-50
2023/04/23 03:13:35;;;;;;;7.90;4.43;;;;;;;11.17;100.00;98268.13;4985837;28;20049;-50
2023/04/23 03:16:01;;;;;;;9.75;4.60;;;;;;;11.16;100.00;98255.63;4972848;28;20383;-50
2023/04/23 03:18:26;;;;;;;7.68;4.35;;;;;;;11.13;100.00;98259.63;4975904;28;20608;-50
2023/04/23 03:20:51;;;;;;;11.30;5.05;;;;;;;11.12;100.00;98255.25;4971874;28;20060;-50
2023/04/23 03:23:17;;;;;;;6.53;4.57;;;;;;;11.10;100.00;98257.34;4969693;28;20030;-50
2023/04/23 03:25:42;;;;;;;8.40;4.90;;;;;;;11.08;100.00;98262.16;4978407;28;20142;-50
2023/04/23 03:28:08;;;;;;;8.00;5.10;;;;;;;11.09;100.00;98263.81;4992122;28;20382;-49
2023/04/23 03:30:33;;;;;;;9.70;5.25;;;;;;;11.11;100.00;98267.13;4975586;28;20056;-49
2023/04/23 03:33:01;;;;;;;8.13;4.80;;;;;;;11.12;100.00;98263.38;4975631;28;20041;-49
2023/04/23 03:35:26;;;;;;;8.48;5.18;;;;;;;11.11;100.00;98269.84;4972372;28;20434;-49
2023/04/23 03:37:52;;;;;;;8.07;5.30;;;;;;;11.11;100.00;98264.44;4975451;28;20061;-49
2023/04/23 03:40:18;;;;;;;10.80;5.40;;;;;;;11.11;100.00;98272.53;4970553;28;20034;-49
2023/04/23 03:42:44;;;;;;;9.20;5.32;;;;;;;11.09;100.00;98261.09;4973313;28;20504;-49
2023/04/23 03:45:10;;;;;;;8.88;6.22;;;;;;;11.07;100.00;98271.31;4991572;28;20026;-49
2023/04/23 03:47:35;;;;;;;8.82;6.13;;;;;;;11.04;100.00;98260.94;4971282;28;20038;-49
2023/04/23 03:50:01;;;;;;;8.68;5.68;;;;;;;11.03;100.00;98267.41;4971357;28;20029;-49
2023/04/23 03:52:26;;;;;;;7.30;4.57;;;;;;;11.09;100.00;98279.22;4969251;28;20544;-49
2023/04/23 03:54:52;;;;;;;10.00;5.50;;;;;;;11.06;100.00;98269.66;4975656;28;20105;-49
2023/04/23 03:57:17;;;;;;;8.50;5.55;;;;;;;11.06;100.00;98275.09;4973273;28;20038;-49
2023/04/23 03:59:42;;;;;;;9.82;5.75;;;;;;;11.04;100.00;98281.75;4967814;28;20045;-49
2023/04/23 04:02:08;;;;;;;7.53;5.22;;;;;;;10.98;100.00;98278.06;4969829;28;20077;-49
2023/04/23 04:04:33;;;;;;;8.65;5.70;;;;;;;10.93;100.00;98275.19;4971347;28;20022;-49
2023/04/23 04:06:59;;;;;;;12.30;6.03;;;;;;;10.86;100.00;98282.50;4975293;28;20077;-49
2023/04/23 04:09:25;;;;;;;8.27;5.38;;;;;;;10.84;100.00;98287.28;4986337;28;20030;-49
2023/04/23 04:11:52;;;;;;;12.32;6.72;;;;;;;10.86;100.00;98282.50;4993627;28;20033;-48
2023/04/23 04:14:18;;;;;;;9.98;5.65;;;;;;;10.92;100.00;98293.28;4991608;28;20102;-48
2023/04/23 04:16:44;;;;;;;9.43;5.85;;;;;;;10.92;100.00;98297.84;4971495;28;20121;-48
2023/04/23 04:19:09;;;;;;;8.30;5.25;;;;;;;10.94;100.00;98304.72;4970292;28;20030;-48
2023/04/23 04:21:35;;;;;;;12.25;5.18;;;;;;;10.91;100.00;98294.31;4968956;28;20041;-49
2023/04/23 04:24:01;;;;;;;7.53;5.22;;;;;;;10.88;100.00;98293.94;4990853;28;20076;-49
2023/04/23 04:26:27;;;;;;;10.10;5.68;;;;;;;10.88;100.00;98297.47;4989057;28;20454;-49
2023/04/23 04:28:53;;;;;;;9.63;6.43;;;;;;;10.86;100.00;98286.03;4974289;28;20473;-49
2023/04/23 04:31:22;;;;;;;12.27;6.28;;;;;;;10.89;100.00;98292.88;4987337;28;20085;-49
2023/04/23 04:33:47;;;;;;;11.50;6.32;;;;;;;10.86;100.00;98296.84;4971626;28;20478;-49
2023/04/23 04:36:13;;;;;;;8.95;6.13;;;;;;;10.87;100.00;98294.97;4968985;28;20084;-50
2023/04/23 04:38:39;;;;;;;12.85;5.93;;;;;;;10.86;100.00;98299.56;4978305;28;20037;-50
2023/04/23 04:41:05;;;;;;;9.65;6.63;;;;;;;10.85;100.00;98294.38;4968460;28;20447;-49
2023/04/23 04:43:31;;;;;;;9.38;5.95;;;;;;;10.82;100.00;98303.78;4978836;28;20029;-48
2023/04/23 04:45:57;;;;;;;12.73;6.65;;;;;;;10.91;100.00;98312.44;4977200;28;20446;-49
2023/04/23 04:48:24;;;;;;;7.90;5.72;;;;;;;10.94;100.00;98312.00;4975432;28;20026;-49
2023/04/23 04:50:49;;;;;;;10.35;6.03;;;;;;;10.96;100.00;98309.91;4974835;28;20060;-49
2023/04/23 04:53:15;;;;;;;10.80;5.95;;;;;;;10.97;100.00;98308.84;4989313;28;20384;-49
2023/04/23 04:55:41;;;;;;;9.57;6.38;;;;;;;10.94;100.00;98303.88;4990820;28;20042;-49
2023/04/23 04:58:06;;;;;;;8.93;6.35;;;;;;;10.85;100.00;98303.31;4978914;28;20026;-49
2023/04/23 05:00:32;;;;;;;10.57;5.97;;;;;;;10.88;100.00;98316.41;4973869;28;20169;-49
2023/04/23 05:02:58;;;;;;;11.80;5.78;;;;;;;10.91;100.00;98315.16;4972986;28;20117;-49
2023/04/23 05:05:24;;;;;;;11.35;5.45;;;;;;;10.96;100.00;98316.16;4992613;28;20030;-50
2023/04/23 05:07:53;;;;;;;8.50;5.47;;;;;;;11.07;100.00;98320.03;4977983;28;20040;-49
2023/04/23 05:10:18;;;;;;;9.95;5.47;;;;;;;11.10;100.00;98318.78;4977821;28;20046;-49
2023/04/23 05:12:44;;;;;;;15.15;5.88;;;;;;;11.14;100.00;98314.59;4976218;28;20110;-49
2023/04/23 05:15:12;;;;;;;10.38;5.72;;;;;;;11.28;100.00;98309.91;4971129;28;20379;-50
2023/04/23 05:17:41;;;;;;;9.05;5.18;;;;;;;11.39;100.00;98306.47;4977134;28;20030;-50
2023/04/23 05:20:11;;;;;;;8.40;5.10;;;;;;;11.57;100.00;98295.69;4984173;28;20061;-49
2023/04/23 05:22:38;;;;;;;9.25;4.60;;;;;;;11.77;100.00;98279.25;4972077;28;20065;-49
2023/04/23 05:25:04;;;;;;;11.27;4.68;;;;;;;11.89;100.00;98275.81;4974776;28;20070;-50
2023/04/23 05:27:30;;;;;;;10.02;4.78;;;;;;;12.02;100.00;98267.53;4975556;28;20065;-49
2023/04/23 05:29:55;;;;;;;5.82;4.45;;;;;;;12.35;100.00;98266.34;4962893;28;20125;-50
2023/04/23 05:32:20;;;;;;;8.23;4.50;;;;;;;12.49;100.00;98262.38;4968811;28;20062;-49
2023/04/23 05:34:46;;;;;;;9.50;4.68;;;;;;;12.56;100.00;98254.16;4966619;28;20089;-49
2023/04/23 05:37:11;;;;;;;6.75;4.18;;;;;;;12.68;100.00;98255.88;4974543;28;20118;-49
2023/04/23 05:39:37;;;;;;;6.38;4.45;;;;;;;12.99;100.00;98255.84;4975757;28;20042;-50
2023/04/23 05:42:02;;;;;;;9.20;3.42;;;;;;;12.84;100.00;98238.09;4989888;28;20038;-49
2023/04/23 05:44:28;;;;;;;6.18;4.03;;;;;;;12.84;100.00;98248.16;4990711;28;20033;-48
2023/04/23 05:46:55;;;;;;;6.82;4.03;;;;;;;12.79;100.00;98256.97;4990823;28;20027;-50
2023/04/23 05:49:21;;;;;;;7.07;3.20;;;;;;;12.58;100.00;98261.03;4987704;28;20366;-50
2023/04/23 05:51:47;;;;;;;7.82;3.42;;;;;;;12.42;100.00;98267.91;4986098;28;20041;-51
2023/04/23 05:54:12;;;;;;;7.93;4.00;;;;;;;12.36;100.00;98268.81;4976887;28;20019;-50
2023/04/23 05:56:38;;;;;;;5.85;3.72;;;;;;;12.49;100.00;98274.06;4974311;28;20072;-50
2023/04/23 05:59:03;;;;;;;9.02;3.50;;;;;;;12.62;100.00;98274.94;4972679;28;20034;-49
2023/04/23 06:01:28;;;;;;;8.93;3.58;;;;;;;12.73;100.00;98276.88;4968615;28;20022;-50
2023/04/23 06:03:54;;;;;;;5.40;3.60;;;;;;;12.59;100.00;98267.28;4973878;28;20555;-49
2023/04/23 06:06:19;;;;;;;4.90;3.60;;;;;;;12.63;100.00;98273.91;4986268;28;20347;-50
2023/04/23 06:08:45;;;;;;;6.05;3.13;;;;;;;12.72;100.00;98264.38;4990885;28;20081;-50
2023/04/23 06:11:10;;;;;;;5.55;3.30;;;;;;;12.80;100.00;98265.94;4972729;28;20022;-53
2023/04/23 06:13:39;;;;;;;4.70;3.33;;;;;;;12.83;100.00;98263.56;4974768;28;20027;-53
2023/04/23 06:16:07;;;;;;;6.22;3.65;;;;;;;12.71;100.00;98262.72;4982809;28;20572;-52
2023/04/23 06:18:32;;;;;;;4.43;2.75;;;;;;;12.78;100.00;98254.47;4973352;28;20034;-51
2023/04/23 06:21:03;;;;;;;7.45;3.08;;;;;;;12.80;100.00;98244.22;4977726;28;20030;-52
2023/04/23 06:23:31;;;;;;;5.47;3.63;;;;;;;13.00;100.00;98249.38;4974318;28;20109;-50
2023/04/23 06:25:57;;;;;;;7.30;3.65;;;;;;;13.15;100.00;98241.56;4964580;28;20030;-52
2023/04/23 06:28:22;;;;;;;4.88;2.97;;;;;;;13.35;100.00;98233.97;4975479;28;20061;-51
2023/04/23 06:30:48;;;;;;;5.50;2.70;;;;;;;13.62;100.00;98228.06;4971372;28;20041;-52
2023/04/23 06:33:15;;;;;;;2.83;2.00;;;;;;;13.80;100.00;98225.19;4977996;28;20030;-52
2023/04/23 06:35:41;;;;;;;2.72;1.60;;;;;;;14.00;100.00;98213.13;4982463;28;20483;-52
2023/04/23 06:38:06;;;;;;;2.97;2.20;;;;;;;14.08;100.00;98217.38;4989917;28;20030;-52
2023/04/23 06:40:32;;;;;;;4.65;2.20;;;;;;;14.22;100.00;98221.44;4986470;28;20113;-52
2023/04/23 06:42:58;;;;;;;3.38;2.08;;;;;;;14.32;100.00;98216.22;4970120;28;20398;-52
2023/04/23 06:45:24;;;;;;;2.65;1.50;;;;;;;14.63;100.00;98205.94;4980274;28;20054;-52
2023/04/23 06:47:50;;;;;;;2.55;1.40;;;;;;;14.56;100.00;98194.38;4974973;28;20030;-53
2023/04/23 06:50:16;;;;;;;4.20;1.55;;;;;;;14.89;100.00;98207.22;4990300;28;20060;-52
2023/04/23 06:52:42;;;;;;;1.75;1.20;;;;;;;14.91;100.00;98199.66;4985023;28;20041;-53
2023/04/23 06:55:07;;;;;;;1.30;1.00;;;;;;;15.07;100.00;98193.38;4971298;28;20545;-52
2023/04/23 06:57:33;;;;;;;2.78;1.30;;;;;;;15.21;100.00;98198.50;4973486;28;20034;-52
2023/04/23 06:59:59;;;;;;;2.35;1.50;;;;;;;15.15;100.00;98200.31;4971919;28;20026;-53
2023/04/23 07:02:25;;;;;;;2.28;1.38;;;;;;;14.86;100.00;98199.56;4975492;28;20029;-53
2023/04/23 07:04:50;;;;;;;2.60;1.42;;;;;;;14.94;100.00;98196.44;4975880;28;20038;-53
2023/04/23 07:07:15;;;;;;;2.38;1.38;;;;;;;15.20;100.00;98197.66;4972063;28;20041;-53
2023/04/23 07:09:41;;;;;;;3.10;1.63;;;;;;;14.97;100.00;98193.22;4972918;28;20489;-53
2023/04/23 07:12:06;;;;;;;2.85;1.48;;;;;;;15.42;100.00;98192.28;4975440;28;20394;-53
2023/04/23 07:14:32;;;;;;;3.28;1.70;;;;;;;16.04;100.00;98190.44;4988582;28;20435;-53
2023/04/23 07:16:58;;;;;;;3.05;1.50;;;;;;;16.29;100.00;98188.00;4972996;28;20026;-53
2023/04/23 07:19:23;;;;;;;2.67;1.30;;;;;;;17.01;100.00;98169.63;4986339;28;20022;-53
2023/04/23 07:21:49;;;;;;;2.65;1.00;;;;;;;16.97;100.00;98163.03;4974298;28;20045;-53
2023/04/23 07:24:17;;;;;;;1.05;0.88;;;;;;;16.95;100.00;98173.38;4991994;28;20022;-53
2023/04/23 07:26:42;;;;;;;1.80;1.23;;;;;;;16.78;100.00;98163.41;4989117;28;20031;-52
2023/04/23 07:29:10;;;;;;;2.88;1.02;;;;;;;16.95;100.00;98173.38;4971284;28;20037;-52
2023/04/23 07:31:36;;;;;;;3.70;1.30;;;;;;;16.90;100.00;98178.81;4969055;28;20026;-52
2023/04/23 07:34:01;;;;;;;4.35;1.25;;;;;;;16.68;100.00;98176.94;4972227;28;20138;-52
2023/04/23 07:36:27;;;;;;;2.92;1.30;;;;;;;16.05;100.00;98160.16;4971004;28;20026;-52
2023/04/23 07:38:53;;;;;;;2.45;1.27;;;;;;;16.03;100.00;98172.41;4985165;28;20057;-52
2023/04/23 07:41:18;;;;;;;2.88;1.42;;;;;;;16.46;100.00;98168.00;4968286;28;20026;-52
2023/04/23 07:43:44;;;;;;;1.63;1.00;;;;;;;16.89;100.00;98171.72;4972322;28;20030;-52
2023/04/23 07:46:09;;;;;;;2.08;0.85;;;;;;;17.01;100.00;98166.91;4989058;28;20034;-52
2023/04/23 07:48:35;;;;;;;1.90;1.23;;;;;;;18.32;100.00;98169.84;4973415;28;20026;-52
2023/04/23 07:51:01;;;;;;;1.60;0.88;;;;;;;18.71;100.00;98164.75;4969741;28;20030;-53
2023/04/23 07:53:27;;;;;;;2.75;1.20;;;;;;;18.12;100.00;98167.88;4986543;28;20033;-52
2023/04/23 07:55:55;;;;;;;1.92;1.10;;;;;;;17.82;100.00;98171.31;4977968;28;20031;-52
2023/04/23 07:58:21;;;;;;;1.88;1.02;;;;;;;17.70;100.00;98166.81;4975077;28;20061;-52
2023/04/23 08:00:47;;;;;;;1.70;0.80;;;;;;;20.07;100.00;98160.50;4967514;28;20105;-53
2023/04/23 08:03:12;;;;;;;1.88;0.90;;;;;;;21.26;100.00;98164.16;4971324;28;20030;-52
2023/04/23 08:05:39;;;;;;;2.20;0.93;;;;;;;19.53;100.00;98164.75;4974534;28;20030;-52
2023/04/23 08:08:05;;;;;;;1.98;0.70;;;;;;;19.62;100.00;98167.72;4975370;28;20030;-52
2023/04/23 08:10:31;;;;;;;3.22;0.88;;;;;;;22.20;95.83;98158.25;4983517;28;20030;-52
2023/04/23 08:12:56;;;;;;;1.63;0.80;;;;;;;23.34;79.59;98148.00;4990763;28;20060;-52
2023/04/23 08:15:22;;;;;;;2.15;0.80;;;;;;;23.03;78.43;98136.66;4987943;28;20018;-52
2023/04/23 08:17:47;;;;;;;1.48;0.82;;;;;;;22.75;74.72;98150.31;4973596;28;20065;-52
2023/04/23 08:20:13;;;;;;;1.33;0.80;;;;;;;23.88;71.09;98145.66;4988748;28;20381;-52
2023/04/23 08:22:38;;;;;;;1.52;0.90;;;;;;;23.54;69.93;98136.59;4976431;28;20117;-52
2023/04/23 08:25:04;;;;;;;1.20;0.65;;;;;;;24.85;67.51;98126.97;4974494;28;20038;-52
2023/04/23 08:27:29;;;;;;;0.77;0.77;;;;;;;27.06;57.57;98122.38;4975675;28;20363;-51
2023/04/23 08:29:55;;;;;;;3.13;0.85;;;;;;;27.73;52.84;98118.97;4969218;28;20447;-50
2023/04/23 08:32:20;;;;;;;1.15;0.73;;;;;;;27.68;51.49;98124.72;4973734;28;20038;-51
2023/04/23 08:34:46;;;;;;;1.08;0.77;;;;;;;25.88;54.23;98123.19;4977318;28;20030;-51
2023/04/23 08:37:11;;;;;;;1.05;0.88;;;;;;;26.94;51.85;98122.25;4977480;28;20033;-51
2023/04/23 08:39:36;;;;;;;1.88;1.00;;;;;;;27.96;50.34;98108.44;4974361;28;20442;-51
2023/04/23 08:42:10;;;;;;;1.42;0.90;;;;;;;27.20;49.99;98109.19;4993058;28;20117;-56
2023/04/23 08:44:37;;;;;;;1.80;0.80;;;;;;;28.43;47.05;98107.50;4985132;28;20026;-56
2023/04/23 08:47:10;;;;;;;1.20;0.68;;;;;;;30.28;44.64;98104.13;4974646;28;20050;-56
2023/04/23 08:49:40;;;;;;;1.98;0.60;;;;;;;29.01;45.69;98096.59;4988105;22;20061;-76
2023/04/23 08:52:15;;;;;;;2.05;0.88;;;;;;;27.14;47.61;98118.78;5003638;28;20040;-76
2023/04/23 08:54:46;;;;;;;1.20;0.70;;;;;;;27.01;48.78;98114.22;5019608;28;20026;-76
2023/04/23 08:57:14;;;;;;;1.10;0.80;;;;;;;25.84;50.52;98101.97;5027431;28;20118;-75
2023/04/23 08:59:40;;;;;;;2.55;0.98;;;;;;;25.25;51.50;98102.19;5000153;28;20113;-75
2023/04/23 09:02:06;;;;;;;1.73;1.00;;;;;;;25.36;51.40;98096.06;5011716;28;20053;-75
2023/04/23 09:04:34;;;;;;;1.27;0.88;;;;;;;24.09;53.99;98099.88;5005801;28;20067;-75
2023/04/23 09:07:00;;;;;;;1.13;0.63;;;;;;;24.61;53.54;98105.94;5013855;28;20026;-76
2023/04/23 09:09:27;;;;;;;1.35;1.08;;;;;;;24.76;50.11;98099.25;5012829;28;20088;-76
2023/04/23 09:11:57;;;;;;;1.58;0.98;;;;;;;24.92;51.42;98088.59;4995101;28;20070;-77
2023/04/23 09:14:24;;;;;;;5.05;1.20;;;;;;;24.06;50.88;98097.75;5018710;28;20021;-77
2023/04/23 09:16:50;;;;;;;1.50;1.05;;;;;;;25.25;49.69;98091.09;5002264;28;20033;-76
2023/04/23 09:19:17;;;;;;;1.85;0.88;;;;;;;25.63;47.53;98077.63;5009344;28;20026;-76
2023/04/23 09:21:43;;;;;;;2.50;1.20;;;;;;;24.88;48.37;98088.41;5012901;28;20072;-76
2023/04/23 09:24:11;;;;;;;2.78;0.95;;;;;;;24.08;51.00;98083.59;5011352;28;20017;-76
2023/04/23 09:26:45;;;;;;;1.58;1.00;;;;;;;23.66;51.48;98097.44;5010541;28;20108;-76
2023/04/23 09:29:19;;;;;;;3.00;0.90;;;;;;;22.18;55.00;98080.53;5018487;28;20113;-75
2023/04/23 09:31:46;;;;;;;2.10;1.30;;;;;;;22.26;55.11;98080.72;5000835;28;20443;-76
2023/04/23 09:34:17;;;;;;;1.80;1.20;;;;;;;23.36;54.21;98063.75;5013922;28;20472;-76
2023/04/23 09:36:44;;;;;;;1.95;1.13;;;;;;;24.20;52.14;98065.38;5007725;28;20032;-76
2023/04/23 09:39:13;;;;;;;3.58;1.08;;;;;;;24.75;50.12;98069.09;5010472;28;20029;-76
2023/04/23 09:41:39;;;;;;;2.42;0.80;;;;;;;25.83;49.59;98059.56;5024690;28;20117;-76
2023/04/23 09:44:05;;;;;;;1.35;0.90;;;;;;;26.57;47.23;98058.78;5025845;28;20065;-76
2023/04/23 09:46:38;;;;;;;1.85;0.88;;;;;;;26.16;48.04;98048.09;5010444;28;20121;-76
2023/04/23 09:49:08;;;;;;;2.10;0.80;;;;;;;26.21;48.00;98054.31;4998133;28;20080;-76
2023/04/23 09:51:38;;;;;;;1.23;0.70;;;;;;;26.27;46.95;98030.00;5018586;28;20026;-76
2023/04/23 09:54:09;;;;;;;1.42;0.90;;;;;;;25.20;47.61;98049.72;5020684;28;20026;-76
2023/04/23 09:56:35;;;;;;;4.40;1.05;;;;;;;24.54;48.83;98032.84;5022771;28;20037;-75
2023/04/23 09:59:00;;;;;;;2.85;0.90;;;;;;;25.04;48.62;98044.53;5007693;28;20022;-76
2023/04/23 10:01:29;;;;;;;2.60;0.90;;;;;;;27.03;46.42;98045.31;5019692;28;20021;-75
2023/04/23 10:03:55;;;;;;;2.50;0.90;;;;;;;28.81;42.51;98034.19;5013805;28;20046;-75
2023/04/23 10:06:30;;;;;;;1.02;0.80;;;;;;;27.97;44.41;98018.31;5002435;28;20058;-75
2023/04/23 10:08:56;;;;;;;1.85;0.98;;;;;;;29.11;41.73;98025.72;5013107;28;20480;-77
2023/04/23 10:11:23;;;;;;;2.78;0.70;;;;;;;28.63;42.07;98023.22;5019355;28;20026;-74
2023/04/23 10:13:50;;;;;;;1.70;0.70;;;;;;;27.68;43.25;98024.66;5012733;28;20446;-75
2023/04/23 10:16:17;;;;;;;2.35;0.57;;;;;;;29.91;42.78;98016.84;5013269;28;20025;-75
2023/04/23 10:18:42;;;;;;;1.20;0.60;;;;;;;29.45;43.30;97994.66;5013335;28;20504;-74
2023/04/23 10:21:08;;;;;;;1.35;0.70;;;;;;;28.78;41.75;98005.06;5012771;28;20109;-74
2023/04/23 10:23:35;;;;;;;1.02;0.60;;;;;;;29.08;42.51;98007.72;5011672;28;20105;-74
2023/04/23 10:26:02;;;;;;;1.20;0.63;;;;;;;27.57;44.82;98003.97;5011504;28;20534;-74
2023/04/23 10:28:30;;;;;;;1.05;0.60;;;;;;;27.39;46.69;97994.09;5012019;28;20021;-74
2023/04/23 10:30:57;;;;;;;1.20;0.68;;;;;;;26.76;46.54;98000.16;5010237;28;20099;-74
2023/04/23 10:33:25;;;;;;;1.20;0.93;;;;;;;25.10;45.35;98010.09;5014028;28;20113;-74
2023/04/23 10:35:53;;;;;;;2.00;0.70;;;;;;;24.53;47.82;97998.84;5010249;28;20025;-74
2023/04/23 10:38:19;;;;;;;2.78;0.77;;;;;;;24.57;48.95;97990.72;5013677;28;20535;-74
2023/04/23 10:40:47;;;;;;;1.40;0.75;;;;;;;25.13;48.41;97998.38;5009285;28;20029;-74
2023/04/23 10:43:13;;;;;;;1.98;0.82;;;;;;;25.91;47.42;97989.56;5011176;28;20026;-75
2023/04/23 10:45:38;;;;;;;1.10;0.70;;;;;;;25.26;45.46;97977.28;4997127;28;20042;-76
2023/04/23 10:48:04;;;;;;;1.27;0.60;;;;;;;24.98;45.28;97982.19;4993874;28;20080;-76
2023/04/23 10:50:34;;;;;;;1.73;0.60;;;;;;;25.91;43.93;97972.06;5015042;28;20025;-76
2023/04/23 10:53:01;;;;;;;0.73;0.52;;;;;;;24.53;47.00;97951.00;5011619;28;20029;-76
2023/04/23 10:55:31;;;;;;;1.48;0.70;;;;;;;24.37;47.78;97965.19;4993120;28;20353;-76
2023/04/23 10:58:04;;;;;;;1.42;0.68;;;;;;;24.48;46.66;97971.31;4993334;28;20017;-76
2023/04/23 11:00:50;;;;;;;2.00;0.60;;;;;;;24.78;47.90;97960.56;5005826;28;20134;-72
2023/04/23 11:03:29;;;;;;;3.45;0.60;;;;;;;25.80;45.67;97966.81;4999288;28;20092;-72
2023/04/23 11:05:55;;;;;;;1.13;0.77;;;;;;;26.02;46.10;97963.13;5020691;28;20360;-72
2023/04/23 11:08:20;;;;;;;1.25;0.60;;;;;;;27.61;44.23;97942.97;5005823;28;20041;-74
2023/04/23 11:10:58;;;;;;;1.50;0.60;;;;;;;29.37;40.63;97950.16;5007613;28;20065;-73
2023/04/23 11:13:25;;;;;;;1.33;0.70;;;;;;;27.78;41.07;97950.41;5011374;28;20033;-73
2023/04/23 11:16:13;;;;;;;2.05;0.63;;;;;;;27.39;41.41;97949.66;5010677;28;20076;-73
2023/04/23 11:18:55;;;;;;;1.10;0.50;;;;;;;26.15;42.06;97932.81;5009413;28;20092;-74
2023/04/23 11:21:20;;;;;;;1.83;0.80;;;;;;;25.77;43.72;97939.75;5013967;28;20387;-73
2023/04/23 11:23:45;;;;;;;0.60;0.50;;;;;;;27.11;42.65;97914.78;5019476;28;20117;-74